createdAt,value
2022-08-16T00:01:43.941Z,65.80
2022-08-16T00:04:13.651Z,65.66
2022-08-16T00:06:45.685Z,65.77
2022-08-16T00:09:14.757Z,65.51
2022-08-16T00:11:44.708Z,65.42
2022-08-16T00:14:17.745Z,65.62
2022-08-16T00:17:05.987Z,65.65
2022-08-16T00:19:41.490Z,67.42
2022-08-16T00:22:13.679Z,66.93
2022-08-16T00:24:44.758Z,66.92
2022-08-16T00:27:15.744Z,66.29
2022-08-16T00:29:46.157Z,67.10
2022-08-16T00:32:18.022Z,67.38
2022-08-16T00:34:52.918Z,67.44
2022-08-16T00:37:57.951Z,66.49
2022-08-16T00:40:34.028Z,65.87
2022-08-16T00:43:11.658Z,65.72
2022-08-16T00:46:00.257Z,65.50
2022-08-16T00:48:43.757Z,66.59
2022-08-16T00:51:16.154Z,66.28
2022-08-16T00:53:47.594Z,65.84
2022-08-16T00:56:51.880Z,65.83
2022-08-16T00:59:11.186Z,65.42
2022-08-16T01:01:45.754Z,65.62
2022-08-16T01:04:29.372Z,66.54
2022-08-16T01:07:02.289Z,66.03
2022-08-16T01:09:34.353Z,65.62
2022-08-16T01:12:10.650Z,68.29
2022-08-16T01:14:45.245Z,70.88
2022-08-16T01:17:19.066Z,70.89
2022-08-16T01:19:56.980Z,69.08
2022-08-16T01:22:57.645Z,71.39
2022-08-16T01:25:33.704Z,74.16
2022-08-16T01:28:04.908Z,74.33
2022-08-16T01:30:40.173Z,71.68
2022-08-16T01:33:22.373Z,72.48
2022-08-16T01:35:56.217Z,72.06
2022-08-16T01:38:28.492Z,71.61
2022-08-16T01:41:02.003Z,73.87
2022-08-16T01:43:32.790Z,72.27
2022-08-16T01:46:37.314Z,74.07
2022-08-16T01:48:57.360Z,73.46
2022-08-16T01:51:28.319Z,76.58
2022-08-16T01:53:57.442Z,76.33
2022-08-16T01:56:29.414Z,74.32
2022-08-16T01:59:00.990Z,77.72
2022-08-16T02:01:30.406Z,76.69
2022-08-16T02:04:10.220Z,71.03
2022-08-16T02:06:46.636Z,71.07
2022-08-16T02:09:17.685Z,71.46
2022-08-16T02:11:56.587Z,71.30
2022-08-16T02:14:29.681Z,70.61
2022-08-16T02:17:01.550Z,70.43
2022-08-16T02:19:58.410Z,71.86
2022-08-16T02:22:34.049Z,71.60
2022-08-16T02:25:09.951Z,75.59
2022-08-16T02:27:41.746Z,74.02
2022-08-16T02:30:35.864Z,77.40
2022-08-16T02:33:07.578Z,76.98
2022-08-16T02:35:49.678Z,75.72
2022-08-16T02:38:23.334Z,75.76
2022-08-16T02:40:54.448Z,77.05
2022-08-16T02:43:26.445Z,75.67
2022-08-16T02:45:55.645Z,71.93
2022-08-16T02:48:30.333Z,72.43
2022-08-16T02:51:10.709Z,73.84
2022-08-16T02:53:43.856Z,75.46
2022-08-16T02:56:15.631Z,74.97
2022-08-16T02:58:47.868Z,72.66
2022-08-16T03:01:24.766Z,71.65
2022-08-16T03:04:41.106Z,69.66
2022-08-16T03:06:56.869Z,72.09
2022-08-16T03:09:28.760Z,71.79
2022-08-16T03:11:58.859Z,71.16
2022-08-16T03:14:31.096Z,72.64
2022-08-16T03:17:01.895Z,71.80
2022-08-16T03:19:48.028Z,72.36
2022-08-16T03:22:28.723Z,72.37
2022-08-16T03:25:01.221Z,70.89
2022-08-16T03:27:32.226Z,71.00
2022-08-16T03:30:16.059Z,69.06
2022-08-16T03:32:47.053Z,73.85
2022-08-16T03:35:17.543Z,71.59
2022-08-16T03:38:01.720Z,71.92
2022-08-16T03:40:33.261Z,70.58
2022-08-16T03:43:20.160Z,70.01
2022-08-16T03:45:53.226Z,70.08
2022-08-16T03:48:36.880Z,71.46
2022-08-16T03:51:12.986Z,74.28
2022-08-16T03:53:42.745Z,71.83
2022-08-16T03:56:19.858Z,77.80
2022-08-16T03:58:51.154Z,79.95
2022-08-16T04:01:23.485Z,84.11
2022-08-16T04:03:52.836Z,82.96
2022-08-16T04:06:23.770Z,86.26
2022-08-16T04:08:52.702Z,86.60
2022-08-16T04:11:23.850Z,85.12
2022-08-16T04:13:59.891Z,88.05
2022-08-16T04:16:37.136Z,87.42
2022-08-16T04:19:05.825Z,82.22
2022-08-16T04:21:35.501Z,80.02
2022-08-16T04:24:07.763Z,80.20
2022-08-16T04:26:37.283Z,80.38
2022-08-16T04:29:23.498Z,79.78
2022-08-16T04:31:57.877Z,77.54
2022-08-16T04:34:29.476Z,77.07
2022-08-16T04:37:01.399Z,81.86
2022-08-16T04:39:44.967Z,81.20
2022-08-16T04:42:16.097Z,81.48
2022-08-16T04:44:53.590Z,82.08
2022-08-16T04:47:33.165Z,78.70
2022-08-16T04:50:06.128Z,83.04
2022-08-16T04:52:37.117Z,81.42
2022-08-16T04:55:09.455Z,78.53
2022-08-16T04:57:39.098Z,81.91
2022-08-16T05:00:30.494Z,85.21
2022-08-16T05:03:07.133Z,87.09
2022-08-16T05:05:44.969Z,82.56
2022-08-16T05:08:28.909Z,82.71
2022-08-16T05:11:00.269Z,79.47
2022-08-16T05:13:41.092Z,83.38
2022-08-16T05:16:20.154Z,83.36
2022-08-16T05:18:56.546Z,79.85
2022-08-16T05:21:26.824Z,87.36
2022-08-16T05:24:00.307Z,85.60
2022-08-16T05:26:32.979Z,78.99
2022-08-16T05:29:04.440Z,77.21
2022-08-16T05:31:35.051Z,77.06
2022-08-16T05:34:05.813Z,71.71
2022-08-16T05:36:51.196Z,70.68
2022-08-16T05:39:20.896Z,72.84
2022-08-16T05:41:52.082Z,69.90
2022-08-16T05:44:24.274Z,68.72
2022-08-16T05:46:55.029Z,70.35
2022-08-16T05:49:39.937Z,64.50
2022-08-16T05:52:11.225Z,63.27
2022-08-16T05:54:47.683Z,62.44
2022-08-16T05:57:18.298Z,65.36
2022-08-16T05:59:50.526Z,58.48
2022-08-16T06:02:33.372Z,62.61
2022-08-16T06:05:04.194Z,68.09
2022-08-16T06:07:32.904Z,67.54
2022-08-16T06:10:02.994Z,65.77
2022-08-16T06:12:32.673Z,66.31
2022-08-16T06:15:04.430Z,68.17
2022-08-16T06:17:45.957Z,65.50
2022-08-16T06:20:18.104Z,68.73
2022-08-16T06:23:02.767Z,67.65
2022-08-16T06:25:36.502Z,66.25
2022-08-16T06:28:10.218Z,64.01
2022-08-16T06:30:43.559Z,62.52
2022-08-16T06:33:19.650Z,64.80
2022-08-16T06:35:55.318Z,63.60
2022-08-16T06:38:33.386Z,59.04
2022-08-16T06:41:05.421Z,59.23
2022-08-16T06:43:35.090Z,59.72
2022-08-16T06:46:09.894Z,67.18
2022-08-16T06:48:42.926Z,64.40
2022-08-16T06:51:11.862Z,62.89
2022-08-16T06:53:43.550Z,65.91
2022-08-16T06:56:14.495Z,61.00
2022-08-16T06:58:52.977Z,64.15
2022-08-16T07:01:46.102Z,64.26
2022-08-16T07:04:12.216Z,59.20
2022-08-16T07:06:43.038Z,57.91
2022-08-16T07:09:12.861Z,57.06
2022-08-16T07:11:46.235Z,58.08
2022-08-16T07:14:24.584Z,63.17
2022-08-16T07:16:59.005Z,64.08
2022-08-16T07:20:01.765Z,59.73
2022-08-16T07:22:38.731Z,61.70
2022-08-16T07:25:11.766Z,58.07
2022-08-16T07:27:40.834Z,57.99
2022-08-16T07:30:38.849Z,60.86
2022-08-16T07:33:03.468Z,60.38
2022-08-16T07:35:34.309Z,59.99
2022-08-16T07:38:02.954Z,58.21
2022-08-16T07:40:59.246Z,53.38
2022-08-16T07:43:20.620Z,53.79
2022-08-16T07:45:52.875Z,49.21
2022-08-16T07:48:22.267Z,53.57
2022-08-16T07:50:59.186Z,55.21
2022-08-16T07:53:30.549Z,58.41
2022-08-16T07:56:01.199Z,55.55
2022-08-16T07:58:36.353Z,58.59
2022-08-16T08:01:10.525Z,55.86
2022-08-16T08:03:49.103Z,59.07
2022-08-16T08:06:21.168Z,58.40
2022-08-16T08:08:57.239Z,58.98
2022-08-16T08:11:28.630Z,54.51
2022-08-16T08:14:02.975Z,53.64
2022-08-16T08:16:33.369Z,49.56
2022-08-16T08:19:04.782Z,53.45
2022-08-16T08:21:58.325Z,51.24
2022-08-16T08:24:32.209Z,48.98
2022-08-16T08:27:04.265Z,47.99
2022-08-16T08:29:37.636Z,47.34
2022-08-16T08:32:59.930Z,48.93
2022-08-16T08:35:03.206Z,56.45
2022-08-16T08:37:55.799Z,49.37
2022-08-16T08:40:26.586Z,49.83
2022-08-16T08:42:57.888Z,56.23
2022-08-16T08:45:47.128Z,58.65
2022-08-16T08:48:33.441Z,58.27
2022-08-16T08:51:05.925Z,55.64
2022-08-16T08:53:39.856Z,55.55
2022-08-16T08:56:23.587Z,54.85
2022-08-16T08:58:59.945Z,54.72
2022-08-16T09:01:36.582Z,53.32
2022-08-16T09:04:14.310Z,53.08
2022-08-16T09:06:45.881Z,54.10
2022-08-16T09:09:16.927Z,51.66
2022-08-16T09:11:52.717Z,49.01
2022-08-16T09:14:27.339Z,48.14
2022-08-16T09:17:01.461Z,46.99
2022-08-16T09:19:37.285Z,48.41
2022-08-16T09:22:20.103Z,49.76
2022-08-16T09:24:54.008Z,49.09
2022-08-16T09:27:56.918Z,48.39
2022-08-16T09:30:32.600Z,48.27
2022-08-16T09:33:03.593Z,48.46
2022-08-16T09:35:37.376Z,47.08
2022-08-16T09:38:08.647Z,45.31
2022-08-16T09:40:42.369Z,49.44
2022-08-16T09:43:37.647Z,49.19
2022-08-16T09:46:02.699Z,46.68
2022-08-16T09:48:44.379Z,50.16
2022-08-16T09:51:19.667Z,46.16
2022-08-16T09:53:53.911Z,45.54
2022-08-16T09:56:31.530Z,48.27
2022-08-16T09:59:03.861Z,46.92
2022-08-16T10:01:38.531Z,43.66
2022-08-16T10:04:31.675Z,46.03
2022-08-16T10:07:01.976Z,46.32
2022-08-16T10:09:45.027Z,43.95
2022-08-16T10:12:42.284Z,46.67
2022-08-16T10:15:15.638Z,44.48
2022-08-16T10:18:01.223Z,46.07
2022-08-16T10:20:34.768Z,43.02
2022-08-16T10:23:07.980Z,45.19
2022-08-16T10:27:22.007Z,42.81
2022-08-16T10:28:39.842Z,43.78
2022-08-16T10:31:16.760Z,43.61
2022-08-16T10:33:46.561Z,44.76
2022-08-16T10:36:38.846Z,42.37
2022-08-16T10:39:05.243Z,42.78
2022-08-16T10:41:36.999Z,45.56
2022-08-16T10:44:09.658Z,42.55
2022-08-16T10:46:41.569Z,45.21
2022-08-16T10:49:13.075Z,42.56
2022-08-16T10:52:01.221Z,40.98
2022-08-16T10:54:32.098Z,42.39
2022-08-16T10:57:04.482Z,44.62
2022-08-16T10:59:44.096Z,42.74
2022-08-16T11:02:57.740Z,42.12
2022-08-16T11:05:14.955Z,40.16
2022-08-16T11:07:53.797Z,39.95
2022-08-16T11:16:26.663Z,38.52
2022-08-16T11:19:04.056Z,39.37
2022-08-16T11:21:37.965Z,43.78
2022-08-16T11:24:42.937Z,41.62
2022-08-16T11:27:19.594Z,39.76
2022-08-16T11:29:52.273Z,39.44
2022-08-16T11:32:32.462Z,38.72
2022-08-16T11:35:13.883Z,41.04
2022-08-16T11:40:44.246Z,39.74
2022-08-16T11:43:16.605Z,40.41
2022-08-16T11:45:53.502Z,41.69
2022-08-16T11:48:24.953Z,41.23
2022-08-16T11:50:54.160Z,39.15
2022-08-16T11:53:23.811Z,40.83
2022-08-16T11:55:54.897Z,40.82
2022-08-16T11:58:25.401Z,38.24
2022-08-16T12:00:57.494Z,37.74
2022-08-16T12:03:35.413Z,40.08
2022-08-16T12:06:11.001Z,37.94
2022-08-16T12:08:55.606Z,37.57
2022-08-16T12:11:25.796Z,38.96
2022-08-16T12:13:55.402Z,39.90
2022-08-16T12:16:23.748Z,39.81
2022-08-16T12:19:01.258Z,37.33
2022-08-16T12:21:36.096Z,44.12
2022-08-16T12:24:17.934Z,45.22
2022-08-16T12:26:46.342Z,41.80
2022-08-16T12:29:14.973Z,42.30
2022-08-16T12:32:01.481Z,40.15
2022-08-16T12:34:34.633Z,40.65
2022-08-16T12:37:08.994Z,45.95
2022-08-16T12:39:47.156Z,43.99
2022-08-16T12:42:20.865Z,43.42
2022-08-16T12:44:49.594Z,44.93
2022-08-16T12:47:36.582Z,45.90
2022-08-16T12:50:10.601Z,44.25
2022-08-16T12:52:52.080Z,42.46
2022-08-16T12:55:22.238Z,43.25
2022-08-16T12:57:58.396Z,43.21
2022-08-16T13:00:33.030Z,42.88
2022-08-16T13:03:04.278Z,41.17
2022-08-16T13:05:47.745Z,42.97
2022-08-16T13:08:27.480Z,43.10
2022-08-16T13:11:00.176Z,43.08
2022-08-16T13:13:29.633Z,39.83
2022-08-16T13:16:05.690Z,38.44
2022-08-16T13:18:39.330Z,39.34
2022-08-16T13:21:10.956Z,39.09
2022-08-16T13:23:43.220Z,40.21
2022-08-16T13:26:12.827Z,40.13
2022-08-16T13:28:47.762Z,40.55
2022-08-16T13:31:16.743Z,43.69
2022-08-16T13:33:46.341Z,40.23
2022-08-16T13:36:32.239Z,43.25
2022-08-16T13:39:05.597Z,43.57
2022-08-16T13:41:34.037Z,43.44
2022-08-16T13:44:04.152Z,43.09
2022-08-16T13:46:37.760Z,43.88
2022-08-16T13:49:07.155Z,42.36
2022-08-16T13:51:37.091Z,39.04
2022-08-16T13:54:08.347Z,42.30
2022-08-16T13:56:39.977Z,40.05
2022-08-16T13:59:14.207Z,42.34
2022-08-16T14:01:55.045Z,40.64
2022-08-16T14:04:27.475Z,38.23
2022-08-16T14:06:58.616Z,37.73
2022-08-16T14:09:28.506Z,38.90
2022-08-16T14:11:57.815Z,38.15
2022-08-16T14:14:29.004Z,39.82
2022-08-16T14:16:59.463Z,42.72
2022-08-16T14:19:29.663Z,40.66
2022-08-16T14:22:14.908Z,40.82
2022-08-16T14:24:49.604Z,40.43
2022-08-16T14:27:21.325Z,43.54
2022-08-16T14:29:52.284Z,39.81
2022-08-16T14:32:33.382Z,38.58
2022-08-16T14:35:06.096Z,39.24
2022-08-16T14:37:38.157Z,37.05
2022-08-16T14:40:09.832Z,39.78
2022-08-16T14:42:38.938Z,36.79
2022-08-16T14:45:09.235Z,38.78
2022-08-16T14:47:38.517Z,37.99
2022-08-16T14:50:09.757Z,38.29
2022-08-16T14:53:03.868Z,42.91
2022-08-16T14:55:36.415Z,43.23
2022-08-16T14:58:06.115Z,41.30
2022-08-16T15:00:38.843Z,43.14
2022-08-16T15:03:10.995Z,42.51
2022-08-16T15:05:41.581Z,42.70
2022-08-16T15:08:11.752Z,39.99
2022-08-16T15:10:44.879Z,41.87
2022-08-16T15:13:16.425Z,39.76
2022-08-16T15:15:56.276Z,39.71
2022-08-16T15:18:28.180Z,40.94
2022-08-16T15:21:02.227Z,36.03
2022-08-16T15:23:33.912Z,38.23
2022-08-16T15:26:08.334Z,38.68
2022-08-16T15:28:38.106Z,37.49
2022-08-16T15:31:09.711Z,39.73
2022-08-16T15:33:44.305Z,41.44
2022-08-16T15:36:21.158Z,40.83
2022-08-16T15:38:57.481Z,37.62
2022-08-16T15:41:58.431Z,38.45
2022-08-16T15:44:44.160Z,39.46
2022-08-16T15:47:19.714Z,38.88
2022-08-16T15:49:54.613Z,42.01
2022-08-16T15:52:29.883Z,41.80
2022-08-16T15:55:12.805Z,41.07
2022-08-16T15:57:52.387Z,39.59
2022-08-16T16:00:22.255Z,36.57
2022-08-16T16:03:03.700Z,43.05
2022-08-16T16:05:32.320Z,41.35
2022-08-16T16:08:11.146Z,41.99
2022-08-16T16:10:44.403Z,38.72
2022-08-16T16:13:23.009Z,36.21
2022-08-16T16:15:54.444Z,37.69
2022-08-16T16:18:24.795Z,38.36
2022-08-16T16:20:57.407Z,41.00
2022-08-16T16:23:29.507Z,40.42
2022-08-16T16:26:00.475Z,38.27
2022-08-16T16:29:08.012Z,36.16
2022-08-16T16:31:26.318Z,39.53
2022-08-16T16:33:58.838Z,36.87
2022-08-16T16:36:29.656Z,40.74
2022-08-16T16:38:58.489Z,36.21
2022-08-16T16:41:30.413Z,41.28
2022-08-16T16:44:02.090Z,41.40
2022-08-16T16:46:42.939Z,35.22
2022-08-16T16:49:14.853Z,36.19
2022-08-16T16:51:49.734Z,35.88
2022-08-16T16:54:28.034Z,36.28
2022-08-16T16:56:58.853Z,39.12
2022-08-16T16:59:28.023Z,40.92
2022-08-16T17:02:39.430Z,40.28
2022-08-16T17:04:47.724Z,40.62
2022-08-16T17:07:16.276Z,40.42
2022-08-16T17:09:45.784Z,37.63
2022-08-16T17:12:22.629Z,36.08
2022-08-16T17:14:54.074Z,40.09
2022-08-16T17:17:23.109Z,37.47
2022-08-16T17:19:51.714Z,37.61
2022-08-16T17:22:22.823Z,38.64
2022-08-16T17:24:53.310Z,36.86
2022-08-16T17:30:20.646Z,37.56
2022-08-16T17:33:01.537Z,37.19
2022-08-16T17:35:36.040Z,36.62
2022-08-16T17:38:08.088Z,37.10
2022-08-16T17:39:26.846Z,37.54
2022-08-16T17:40:49.401Z,36.79
2022-08-16T17:43:31.049Z,36.42
2022-08-16T17:46:00.167Z,35.43
2022-08-16T17:48:31.135Z,36.55
2022-08-16T17:51:00.105Z,36.64
2022-08-16T17:53:28.601Z,37.53
2022-08-16T17:55:57.076Z,37.93
2022-08-16T17:58:27.264Z,37.88
2022-08-16T18:00:59.763Z,36.88
2022-08-16T18:04:02.414Z,37.44
2022-08-16T18:06:23.981Z,38.02
2022-08-16T18:09:00.340Z,38.28
2022-08-16T18:11:32.812Z,38.07
2022-08-16T18:14:02.902Z,39.16
2022-08-16T18:16:31.283Z,38.82
2022-08-16T18:18:59.972Z,38.58
2022-08-16T18:21:46.313Z,38.84
2022-08-16T18:24:15.985Z,38.69
2022-08-16T18:26:44.372Z,38.81
2022-08-16T18:29:14.068Z,38.86
2022-08-16T18:31:42.446Z,38.37
2022-08-16T18:34:10.960Z,38.78
2022-08-16T18:36:39.452Z,39.27
2022-08-16T18:39:07.763Z,40.15
2022-08-16T18:41:38.021Z,39.90
2022-08-16T18:44:26.668Z,39.52
2022-08-16T18:46:57.549Z,40.24
2022-08-16T18:49:25.887Z,40.29
2022-08-16T18:51:58.565Z,40.29
2022-08-16T18:54:28.214Z,39.94
2022-08-16T18:56:58.344Z,39.80
2022-08-16T18:59:29.333Z,40.07
2022-08-16T19:02:05.009Z,40.29
2022-08-16T19:04:50.405Z,39.99
2022-08-16T19:07:30.920Z,40.99
2022-08-16T19:10:01.609Z,41.02
2022-08-16T19:12:38.603Z,41.20
2022-08-16T19:15:15.717Z,41.49
2022-08-16T19:17:46.225Z,41.02
2022-08-16T19:20:17.306Z,41.46
2022-08-16T19:23:05.569Z,43.23
2022-08-16T19:25:47.109Z,45.80
2022-08-16T19:28:49.099Z,45.37
2022-08-16T19:31:15.442Z,45.74
2022-08-16T19:33:53.860Z,46.23
2022-08-16T19:36:31.662Z,46.90
2022-08-16T19:39:04.755Z,47.54
2022-08-16T19:41:36.343Z,47.50
2022-08-16T19:44:07.359Z,47.28
2022-08-16T19:46:36.106Z,47.38
2022-08-16T19:49:07.607Z,47.27
2022-08-16T19:51:35.963Z,47.92
2022-08-16T19:54:06.530Z,47.86
2022-08-16T19:56:34.842Z,47.48
2022-08-16T19:59:20.964Z,47.50
2022-08-16T20:01:52.584Z,48.59
2022-08-16T20:04:24.629Z,48.66
2022-08-16T20:06:55.619Z,48.71
2022-08-16T20:09:25.224Z,48.69
2022-08-16T20:11:54.354Z,48.51
2022-08-16T20:14:26.283Z,48.92
2022-08-16T20:16:57.299Z,48.38
2022-08-16T20:19:29.178Z,48.58
2022-08-16T20:22:03.259Z,47.44
2022-08-16T20:24:35.555Z,46.05
2022-08-16T20:27:06.139Z,46.52
2022-08-16T20:29:35.152Z,46.71
2022-08-16T20:32:04.140Z,46.57
2022-08-16T20:34:33.883Z,46.41
2022-08-16T20:37:02.433Z,46.97
2022-08-16T20:39:30.783Z,46.93
2022-08-16T20:41:59.319Z,46.96
2022-08-16T20:44:27.672Z,47.32
2022-08-16T20:46:55.987Z,46.83
2022-08-16T20:49:24.325Z,47.06
2022-08-16T20:51:59.113Z,46.58
2022-08-16T20:54:29.466Z,46.23
2022-08-16T20:56:57.805Z,46.42
2022-08-16T20:59:26.334Z,47.01
2022-08-16T21:01:54.885Z,47.42
2022-08-16T21:04:26.459Z,47.34
2022-08-16T21:06:58.463Z,47.43
2022-08-16T21:09:31.471Z,47.25
2022-08-16T21:12:02.683Z,46.62
2022-08-16T21:14:34.243Z,46.23
2022-08-16T21:17:03.246Z,46.81
2022-08-16T21:19:31.947Z,47.05
2022-08-16T21:22:13.252Z,47.40
2022-08-16T21:24:41.976Z,47.44
2022-08-16T21:27:11.492Z,47.05
2022-08-16T21:29:43.148Z,47.37
2022-08-16T21:32:15.143Z,47.98
2022-08-16T21:34:44.002Z,47.65
2022-08-16T21:37:15.657Z,47.65
2022-08-16T21:39:44.667Z,47.78
2022-08-16T21:42:16.440Z,47.80
2022-08-16T21:44:45.064Z,47.38
2022-08-16T21:47:13.510Z,46.62
2022-08-16T21:49:42.003Z,46.83
2022-08-16T21:52:25.943Z,46.70
2022-08-16T21:54:58.011Z,47.47
2022-08-16T21:57:26.560Z,47.68
2022-08-16T22:00:06.613Z,46.75
2022-08-16T22:02:35.873Z,46.38
2022-08-16T22:05:08.130Z,46.27
2022-08-16T22:07:36.437Z,46.87
2022-08-16T22:11:04.504Z,46.97
2022-08-16T22:12:57.021Z,46.75
2022-08-16T22:15:26.226Z,46.69
2022-08-16T22:17:57.621Z,47.47
2022-08-16T22:20:28.188Z,48.00
2022-08-16T22:23:08.059Z,48.84
2022-08-16T22:25:39.789Z,49.25
2022-08-16T22:28:08.123Z,49.58
2022-08-16T22:30:36.682Z,48.88
2022-08-16T22:33:10.314Z,49.22
2022-08-16T22:35:45.044Z,49.38
2022-08-16T22:38:54.277Z,49.11
2022-08-16T22:41:05.229Z,48.28
2022-08-16T22:43:34.041Z,48.03
2022-08-16T22:46:02.434Z,47.60
2022-08-16T22:48:30.741Z,48.10
2022-08-16T22:51:07.956Z,47.78
2022-08-16T22:53:37.414Z,47.92
2022-08-16T22:56:08.221Z,47.80
2022-08-16T22:58:37.364Z,47.97
2022-08-16T23:01:06.497Z,48.84
2022-08-16T23:03:35.357Z,49.26
2022-08-16T23:06:03.831Z,49.61
2022-08-16T23:08:39.315Z,49.63
2022-08-16T23:11:13.331Z,49.45
2022-08-16T23:13:53.046Z,49.63
2022-08-16T23:16:33.185Z,48.97
2022-08-16T23:19:05.304Z,49.30
2022-08-16T23:21:34.140Z,48.96
2022-08-16T23:24:03.245Z,49.19
2022-08-16T23:26:44.354Z,49.56
2022-08-16T23:29:25.289Z,48.86
2022-08-16T23:31:59.623Z,48.85
2022-08-16T23:34:29.792Z,48.84
2022-08-16T23:36:58.233Z,49.42
2022-08-16T23:39:27.064Z,49.82
2022-08-16T23:41:56.873Z,49.79
2022-08-16T23:44:55.415Z,50.16
2022-08-16T23:47:13.851Z,50.75
2022-08-16T23:49:58.642Z,50.21
2022-08-16T23:52:53.208Z,51.21
2022-08-16T23:55:19.634Z,51.52
2022-08-16T23:57:49.941Z,51.37
